sensor_id;sensor_type;location;lat;lon;timestamp;P1;durP1;ratioP1;P2;durP2;ratioP2
66112;SDS011;52893;52.870;5.822;2023-02-08T00:01:07;29.42;;;13.13;;
66112;SDS011;52893;52.870;5.822;2023-02-08T00:03:36;26.50;;;13.98;;
66112;SDS011;52893;52.870;5.822;2023-02-08T00:06:03;24.83;;;12.88;;
66112;SDS011;52893;52.870;5.822;2023-02-08T00:08:32;29.88;;;13.57;;
66112;SDS011;52893;52.870;5.822;2023-02-08T00:11:00;30.85;;;12.57;;
66112;SDS011;52893;52.870;5.822;2023-02-08T00:13:27;27.63;;;13.80;;
66112;SDS011;52893;52.870;5.822;2023-02-08T00:15:54;28.40;;;12.70;;
66112;SDS011;52893;52.870;5.822;2023-02-08T00:18:21;26.48;;;12.65;;
66112;SDS011;52893;52.870;5.822;2023-02-08T00:20:50;26.65;;;13.90;;
66112;SDS011;52893;52.870;5.822;2023-02-08T00:23:20;33.63;;;14.00;;
66112;SDS011;52893;52.870;5.822;2023-02-08T00:25:47;26.08;;;12.35;;
66112;SDS011;52893;52.870;5.822;2023-02-08T00:28:15;28.17;;;13.13;;
66112;SDS011;52893;52.870;5.822;2023-02-08T00:30:43;40.40;;;14.65;;
66112;SDS011;52893;52.870;5.822;2023-02-08T00:33:11;29.98;;;12.70;;
66112;SDS011;52893;52.870;5.822;2023-02-08T00:35:38;26.40;;;13.57;;
66112;SDS011;52893;52.870;5.822;2023-02-08T00:38:08;28.45;;;13.73;;
66112;SDS011;52893;52.870;5.822;2023-02-08T00:40:35;36.25;;;14.50;;
66112;SDS011;52893;52.870;5.822;2023-02-08T00:43:03;29.63;;;15.05;;
66112;SDS011;52893;52.870;5.822;2023-02-08T00:45:31;26.38;;;12.27;;
66112;SDS011;52893;52.870;5.822;2023-02-08T00:47:58;26.75;;;13.65;;
66112;SDS011;52893;52.870;5.822;2023-02-08T00:50:25;29.67;;;14.30;;
66112;SDS011;52893;52.870;5.822;2023-02-08T00:52:53;29.23;;;13.23;;
66112;SDS011;52893;52.870;5.822;2023-02-08T00:55:21;24.02;;;12.95;;
66112;SDS011;52893;52.870;5.822;2023-02-08T00:57:48;30.30;;;12.80;;
66112;SDS011;52893;52.870;5.822;2023-02-08T01:00:16;28.45;;;14.02;;
66112;SDS011;52893;52.870;5.822;2023-02-08T01:02:43;30.92;;;14.07;;
66112;SDS011;52893;52.870;5.822;2023-02-08T01:05:10;23.27;;;12.60;;
66112;SDS011;52893;52.870;5.822;2023-02-08T01:07:38;34.47;;;15.40;;
66112;SDS011;52893;52.870;5.822;2023-02-08T01:10:06;31.63;;;14.80;;
66112;SDS011;52893;52.870;5.822;2023-02-08T01:12:38;27.80;;;12.75;;
66112;SDS011;52893;52.870;5.822;2023-02-08T01:15:06;29.00;;;15.13;;
66112;SDS011;52893;52.870;5.822;2023-02-08T01:17:33;33.05;;;14.80;;
66112;SDS011;52893;52.870;5.822;2023-02-08T01:20:01;30.25;;;13.98;;
66112;SDS011;52893;52.870;5.822;2023-02-08T01:22:29;29.15;;;14.70;;
66112;SDS011;52893;52.870;5.822;2023-02-08T01:24:56;27.48;;;14.68;;
66112;SDS011;52893;52.870;5.822;2023-02-08T01:27:25;23.52;;;12.65;;
66112;SDS011;52893;52.870;5.822;2023-02-08T01:29:54;30.77;;;15.07;;
66112;SDS011;52893;52.870;5.822;2023-02-08T01:32:21;30.10;;;14.63;;
66112;SDS011;52893;52.870;5.822;2023-02-08T01:34:49;30.52;;;14.25;;
66112;SDS011;52893;52.870;5.822;2023-02-08T01:37:16;26.48;;;13.23;;
66112;SDS011;52893;52.870;5.822;2023-02-08T01:39:43;28.83;;;14.02;;
66112;SDS011;52893;52.870;5.822;2023-02-08T01:42:12;31.05;;;14.73;;
66112;SDS011;52893;52.870;5.822;2023-02-08T01:47:55;26.75;;;13.95;;
66112;SDS011;52893;52.870;5.822;2023-02-08T01:50:29;26.38;;;12.75;;
66112;SDS011;52893;52.870;5.822;2023-02-08T01:53:00;27.75;;;14.80;;
66112;SDS011;52893;52.870;5.822;2023-02-08T01:55:28;29.48;;;14.27;;
66112;SDS011;52893;52.870;5.822;2023-02-08T01:57:58;27.42;;;14.52;;
66112;SDS011;52893;52.870;5.822;2023-02-08T02:00:28;31.42;;;13.63;;
66112;SDS011;52893;52.870;5.822;2023-02-08T02:02:58;28.52;;;14.65;;
66112;SDS011;52893;52.870;5.822;2023-02-08T02:05:28;29.15;;;13.77;;
66112;SDS011;52893;52.870;5.822;2023-02-08T02:10:27;31.23;;;13.73;;
66112;SDS011;52893;52.870;5.822;2023-02-08T02:13:01;29.40;;;14.30;;
66112;SDS011;52893;52.870;5.822;2023-02-08T02:15:31;31.75;;;13.82;;
66112;SDS011;52893;52.870;5.822;2023-02-08T02:18:00;25.58;;;12.93;;
66112;SDS011;52893;52.870;5.822;2023-02-08T02:20:32;26.95;;;14.27;;
66112;SDS011;52893;52.870;5.822;2023-02-08T02:26:20;35.88;;;14.20;;
66112;SDS011;52893;52.870;5.822;2023-02-08T02:32:30;30.73;;;15.57;;
66112;SDS011;52893;52.870;5.822;2023-02-08T02:35:07;29.58;;;14.18;;
66112;SDS011;52893;52.870;5.822;2023-02-08T02:37:44;28.33;;;14.85;;
66112;SDS011;52893;52.870;5.822;2023-02-08T02:40:20;30.85;;;16.65;;
66112;SDS011;52893;52.870;5.822;2023-02-08T02:42:58;31.38;;;15.18;;
66112;SDS011;52893;52.870;5.822;2023-02-08T02:45:52;30.87;;;14.73;;
66112;SDS011;52893;52.870;5.822;2023-02-08T02:48:28;33.25;;;15.45;;
66112;SDS011;52893;52.870;5.822;2023-02-08T02:50:59;30.80;;;14.68;;
66112;SDS011;52893;52.870;5.822;2023-02-08T02:53:33;30.30;;;13.68;;
66112;SDS011;52893;52.870;5.822;2023-02-08T02:56:08;33.70;;;16.15;;
66112;SDS011;52893;52.870;5.822;2023-02-08T02:58:41;30.48;;;13.85;;
66112;SDS011;52893;52.870;5.822;2023-02-08T03:01:10;27.42;;;14.85;;
66112;SDS011;52893;52.870;5.822;2023-02-08T03:03:39;29.45;;;13.82;;
66112;SDS011;52893;52.870;5.822;2023-02-08T03:06:08;28.33;;;13.35;;
66112;SDS011;52893;52.870;5.822;2023-02-08T03:08:47;29.35;;;14.30;;
66112;SDS011;52893;52.870;5.822;2023-02-08T03:11:27;32.53;;;14.48;;
66112;SDS011;52893;52.870;5.822;2023-02-08T03:14:07;28.00;;;12.85;;
66112;SDS011;52893;52.870;5.822;2023-02-08T03:19:51;28.00;;;13.23;;
66112;SDS011;52893;52.870;5.822;2023-02-08T03:22:27;29.33;;;14.38;;
66112;SDS011;52893;52.870;5.822;2023-02-08T03:25:05;29.75;;;14.00;;
66112;SDS011;52893;52.870;5.822;2023-02-08T03:27:36;33.42;;;14.93;;
66112;SDS011;52893;52.870;5.822;2023-02-08T03:30:09;30.88;;;15.02;;
66112;SDS011;52893;52.870;5.822;2023-02-08T03:32:41;30.58;;;14.75;;
66112;SDS011;52893;52.870;5.822;2023-02-08T03:35:14;32.40;;;16.83;;
66112;SDS011;52893;52.870;5.822;2023-02-08T03:37:46;33.17;;;15.75;;
66112;SDS011;52893;52.870;5.822;2023-02-08T03:40:18;29.55;;;15.00;;
66112;SDS011;52893;52.870;5.822;2023-02-08T03:42:49;27.13;;;13.15;;
66112;SDS011;52893;52.870;5.822;2023-02-08T03:45:19;27.67;;;14.68;;
66112;SDS011;52893;52.870;5.822;2023-02-08T03:47:49;34.35;;;17.70;;
66112;SDS011;52893;52.870;5.822;2023-02-08T03:50:21;29.10;;;13.23;;
66112;SDS011;52893;52.870;5.822;2023-02-08T03:52:50;31.15;;;16.05;;
66112;SDS011;52893;52.870;5.822;2023-02-08T03:55:20;29.55;;;14.18;;
66112;SDS011;52893;52.870;5.822;2023-02-08T03:57:51;25.95;;;13.25;;
66112;SDS011;52893;52.870;5.822;2023-02-08T04:00:20;25.33;;;13.73;;
66112;SDS011;52893;52.870;5.822;2023-02-08T04:02:51;27.52;;;14.73;;
66112;SDS011;52893;52.870;5.822;2023-02-08T04:05:22;27.08;;;13.68;;
66112;SDS011;52893;52.870;5.822;2023-02-08T04:07:50;29.35;;;14.23;;
66112;SDS011;52893;52.870;5.822;2023-02-08T04:10:18;31.33;;;14.25;;
66112;SDS011;52893;52.870;5.822;2023-02-08T04:12:46;26.67;;;12.57;;
66112;SDS011;52893;52.870;5.822;2023-02-08T04:15:14;27.98;;;12.80;;
66112;SDS011;52893;52.870;5.822;2023-02-08T04:17:41;25.20;;;12.80;;
66112;SDS011;52893;52.870;5.822;2023-02-08T04:20:09;26.35;;;13.32;;
66112;SDS011;52893;52.870;5.822;2023-02-08T04:22:38;27.55;;;14.70;;
66112;SDS011;52893;52.870;5.822;2023-02-08T04:25:05;29.88;;;13.80;;
66112;SDS011;52893;52.870;5.822;2023-02-08T04:27:33;27.77;;;13.45;;
66112;SDS011;52893;52.870;5.822;2023-02-08T04:30:00;27.15;;;12.77;;
66112;SDS011;52893;52.870;5.822;2023-02-08T04:32:27;32.67;;;13.15;;
66112;SDS011;52893;52.870;5.822;2023-02-08T04:34:54;30.25;;;14.73;;
66112;SDS011;52893;52.870;5.822;2023-02-08T04:37:21;31.95;;;12.93;;
66112;SDS011;52893;52.870;5.822;2023-02-08T04:39:50;32.90;;;14.32;;
66112;SDS011;52893;52.870;5.822;2023-02-08T04:42:17;21.23;;;10.23;;
66112;SDS011;52893;52.870;5.822;2023-02-08T04:44:44;26.25;;;12.32;;
66112;SDS011;52893;52.870;5.822;2023-02-08T04:47:11;29.75;;;14.07;;
66112;SDS011;52893;52.870;5.822;2023-02-08T04:49:38;25.77;;;12.32;;
66112;SDS011;52893;52.870;5.822;2023-02-08T04:52:06;30.17;;;12.73;;
66112;SDS011;52893;52.870;5.822;2023-02-08T04:54:33;26.65;;;13.77;;
66112;SDS011;52893;52.870;5.822;2023-02-08T04:57:02;26.33;;;13.85;;
66112;SDS011;52893;52.870;5.822;2023-02-08T04:59:29;26.95;;;14.63;;
66112;SDS011;52893;52.870;5.822;2023-02-08T05:01:56;25.08;;;13.63;;
66112;SDS011;52893;52.870;5.822;2023-02-08T05:04:23;25.55;;;11.85;;
66112;SDS011;52893;52.870;5.822;2023-02-08T05:06:50;30.45;;;15.40;;
66112;SDS011;52893;52.870;5.822;2023-02-08T05:09:17;30.20;;;15.10;;
66112;SDS011;52893;52.870;5.822;2023-02-08T05:11:45;28.48;;;14.00;;
66112;SDS011;52893;52.870;5.822;2023-02-08T05:14:13;28.92;;;13.80;;
66112;SDS011;52893;52.870;5.822;2023-02-08T05:16:40;31.33;;;15.38;;
66112;SDS011;52893;52.870;5.822;2023-02-08T05:19:08;24.52;;;12.68;;
66112;SDS011;52893;52.870;5.822;2023-02-08T05:21:36;24.67;;;12.43;;
66112;SDS011;52893;52.870;5.822;2023-02-08T05:24:03;26.25;;;12.63;;
66112;SDS011;52893;52.870;5.822;2023-02-08T05:26:31;32.58;;;13.88;;
66112;SDS011;52893;52.870;5.822;2023-02-08T05:28:59;31.20;;;16.08;;
66112;SDS011;52893;52.870;5.822;2023-02-08T05:31:27;28.60;;;14.43;;
66112;SDS011;52893;52.870;5.822;2023-02-08T05:33:54;26.67;;;13.25;;
66112;SDS011;52893;52.870;5.822;2023-02-08T05:36:22;30.85;;;14.77;;
66112;SDS011;52893;52.870;5.822;2023-02-08T05:38:49;31.42;;;14.57;;
66112;SDS011;52893;52.870;5.822;2023-02-08T05:41:18;33.50;;;17.10;;
66112;SDS011;52893;52.870;5.822;2023-02-08T05:43:45;29.88;;;16.17;;
66112;SDS011;52893;52.870;5.822;2023-02-08T05:46:12;30.48;;;15.75;;
66112;SDS011;52893;52.870;5.822;2023-02-08T05:48:41;30.35;;;16.13;;
66112;SDS011;52893;52.870;5.822;2023-02-08T05:51:08;31.98;;;15.52;;
66112;SDS011;52893;52.870;5.822;2023-02-08T05:53:35;27.85;;;14.23;;
66112;SDS011;52893;52.870;5.822;2023-02-08T05:56:03;36.15;;;16.83;;
66112;SDS011;52893;52.870;5.822;2023-02-08T05:58:30;27.35;;;13.00;;
66112;SDS011;52893;52.870;5.822;2023-02-08T06:00:57;38.45;;;16.17;;
66112;SDS011;52893;52.870;5.822;2023-02-08T06:03:25;33.55;;;13.27;;
66112;SDS011;52893;52.870;5.822;2023-02-08T06:05:54;33.55;;;16.40;;
66112;SDS011;52893;52.870;5.822;2023-02-08T06:08:21;24.33;;;13.02;;
66112;SDS011;52893;52.870;5.822;2023-02-08T06:10:48;29.55;;;15.18;;
66112;SDS011;52893;52.870;5.822;2023-02-08T06:13:15;34.83;;;19.35;;
66112;SDS011;52893;52.870;5.822;2023-02-08T06:15:42;28.15;;;13.23;;
66112;SDS011;52893;52.870;5.822;2023-02-08T06:18:10;34.60;;;16.75;;
66112;SDS011;52893;52.870;5.822;2023-02-08T06:20:37;24.50;;;12.95;;
66112;SDS011;52893;52.870;5.822;2023-02-08T06:23:06;26.77;;;12.73;;
66112;SDS011;52893;52.870;5.822;2023-02-08T06:25:33;27.67;;;13.68;;
66112;SDS011;52893;52.870;5.822;2023-02-08T06:28:01;30.25;;;17.15;;
66112;SDS011;52893;52.870;5.822;2023-02-08T06:30:28;29.90;;;15.00;;
66112;SDS011;52893;52.870;5.822;2023-02-08T06:32:56;37.15;;;17.80;;
66112;SDS011;52893;52.870;5.822;2023-02-08T06:35:23;37.53;;;19.15;;
66112;SDS011;52893;52.870;5.822;2023-02-08T06:37:50;47.45;;;19.98;;
66112;SDS011;52893;52.870;5.822;2023-02-08T06:40:19;35.65;;;18.75;;
66112;SDS011;52893;52.870;5.822;2023-02-08T06:42:46;31.50;;;15.40;;
66112;SDS011;52893;52.870;5.822;2023-02-08T06:45:14;30.08;;;14.02;;
66112;SDS011;52893;52.870;5.822;2023-02-08T06:47:41;36.08;;;15.45;;
66112;SDS011;52893;52.870;5.822;2023-02-08T06:50:08;23.98;;;12.73;;
66112;SDS011;52893;52.870;5.822;2023-02-08T06:52:36;39.63;;;14.27;;
66112;SDS011;52893;52.870;5.822;2023-02-08T06:55:04;27.15;;;12.60;;
66112;SDS011;52893;52.870;5.822;2023-02-08T06:57:33;39.83;;;17.73;;
66112;SDS011;52893;52.870;5.822;2023-02-08T07:00:00;25.33;;;13.27;;
66112;SDS011;52893;52.870;5.822;2023-02-08T07:02:28;33.40;;;16.02;;
66112;SDS011;52893;52.870;5.822;2023-02-08T07:04:55;28.63;;;13.38;;
66112;SDS011;52893;52.870;5.822;2023-02-08T07:07:22;34.92;;;16.67;;
66112;SDS011;52893;52.870;5.822;2023-02-08T07:09:50;33.47;;;14.82;;
66112;SDS011;52893;52.870;5.822;2023-02-08T07:12:17;40.63;;;18.40;;
66112;SDS011;52893;52.870;5.822;2023-02-08T07:14:46;37.20;;;17.33;;
66112;SDS011;52893;52.870;5.822;2023-02-08T07:17:13;35.33;;;15.98;;
66112;SDS011;52893;52.870;5.822;2023-02-08T07:19:40;57.97;;;22.30;;
66112;SDS011;52893;52.870;5.822;2023-02-08T07:22:07;31.70;;;15.30;;
66112;SDS011;52893;52.870;5.822;2023-02-08T07:24:34;36.28;;;17.95;;
66112;SDS011;52893;52.870;5.822;2023-02-08T07:27:03;40.45;;;19.02;;
66112;SDS011;52893;52.870;5.822;2023-02-08T07:29:32;64.13;;;25.55;;
66112;SDS011;52893;52.870;5.822;2023-02-08T07:32:02;43.92;;;19.40;;
66112;SDS011;52893;52.870;5.822;2023-02-08T07:34:31;41.97;;;19.77;;
66112;SDS011;52893;52.870;5.822;2023-02-08T07:37:00;28.80;;;14.10;;
66112;SDS011;52893;52.870;5.822;2023-02-08T07:39:28;27.52;;;13.73;;
66112;SDS011;52893;52.870;5.822;2023-02-08T07:41:56;32.50;;;15.20;;
66112;SDS011;52893;52.870;5.822;2023-02-08T07:44:27;32.70;;;14.40;;
66112;SDS011;52893;52.870;5.822;2023-02-08T07:46:54;31.77;;;15.60;;
66112;SDS011;52893;52.870;5.822;2023-02-08T07:49:22;29.38;;;14.32;;
66112;SDS011;52893;52.870;5.822;2023-02-08T07:51:50;29.02;;;14.43;;
66112;SDS011;52893;52.870;5.822;2023-02-08T07:54:17;34.60;;;16.67;;
66112;SDS011;52893;52.870;5.822;2023-02-08T07:56:44;28.35;;;15.45;;
66112;SDS011;52893;52.870;5.822;2023-02-08T07:59:11;28.58;;;13.52;;
66112;SDS011;52893;52.870;5.822;2023-02-08T08:01:39;35.63;;;14.75;;
66112;SDS011;52893;52.870;5.822;2023-02-08T08:04:06;32.92;;;15.18;;
66112;SDS011;52893;52.870;5.822;2023-02-08T08:06:35;26.85;;;13.65;;
66112;SDS011;52893;52.870;5.822;2023-02-08T08:09:02;29.83;;;14.48;;
66112;SDS011;52893;52.870;5.822;2023-02-08T08:11:30;28.90;;;15.07;;
66112;SDS011;52893;52.870;5.822;2023-02-08T08:13:57;29.70;;;14.90;;
66112;SDS011;52893;52.870;5.822;2023-02-08T08:16:25;26.27;;;13.23;;
66112;SDS011;52893;52.870;5.822;2023-02-08T08:18:52;28.70;;;12.55;;
66112;SDS011;52893;52.870;5.822;2023-02-08T08:21:19;30.48;;;14.30;;
66112;SDS011;52893;52.870;5.822;2023-02-08T08:23:47;17.98;;;9.55;;
66112;SDS011;52893;52.870;5.822;2023-02-08T08:26:16;33.67;;;16.90;;
66112;SDS011;52893;52.870;5.822;2023-02-08T08:28:45;30.65;;;15.65;;
66112;SDS011;52893;52.870;5.822;2023-02-08T08:31:13;29.55;;;15.70;;
66112;SDS011;52893;52.870;5.822;2023-02-08T08:33:45;29.48;;;13.48;;
66112;SDS011;52893;52.870;5.822;2023-02-08T08:36:13;23.27;;;12.27;;
66112;SDS011;52893;52.870;5.822;2023-02-08T08:38:40;32.20;;;16.50;;
66112;SDS011;52893;52.870;5.822;2023-02-08T08:41:09;24.52;;;12.63;;
66112;SDS011;52893;52.870;5.822;2023-02-08T08:43:39;30.33;;;14.75;;
66112;SDS011;52893;52.870;5.822;2023-02-08T08:46:06;26.20;;;14.15;;
66112;SDS011;52893;52.870;5.822;2023-02-08T08:48:34;28.30;;;14.10;;
66112;SDS011;52893;52.870;5.822;2023-02-08T08:51:01;30.15;;;14.98;;
66112;SDS011;52893;52.870;5.822;2023-02-08T08:53:29;37.38;;;18.02;;
66112;SDS011;52893;52.870;5.822;2023-02-08T08:55:56;34.10;;;14.95;;
66112;SDS011;52893;52.870;5.822;2023-02-08T08:58:25;30.95;;;12.98;;
66112;SDS011;52893;52.870;5.822;2023-02-08T09:00:53;38.35;;;17.05;;
66112;SDS011;52893;52.870;5.822;2023-02-08T09:03:22;33.22;;;15.02;;
66112;SDS011;52893;52.870;5.822;2023-02-08T09:05:49;43.70;;;18.48;;
66112;SDS011;52893;52.870;5.822;2023-02-08T09:08:16;46.03;;;18.35;;
66112;SDS011;52893;52.870;5.822;2023-02-08T09:10:43;41.88;;;16.50;;
66112;SDS011;52893;52.870;5.822;2023-02-08T09:13:10;53.33;;;21.75;;
66112;SDS011;52893;52.870;5.822;2023-02-08T09:15:45;62.60;;;23.05;;
66112;SDS011;52893;52.870;5.822;2023-02-08T09:18:13;50.20;;;19.08;;
66112;SDS011;52893;52.870;5.822;2023-02-08T09:20:40;54.88;;;20.83;;
66112;SDS011;52893;52.870;5.822;2023-02-08T09:23:07;63.22;;;23.33;;
66112;SDS011;52893;52.870;5.822;2023-02-08T09:25:35;50.00;;;21.42;;
66112;SDS011;52893;52.870;5.822;2023-02-08T09:28:02;56.70;;;19.90;;
66112;SDS011;52893;52.870;5.822;2023-02-08T09:30:30;47.22;;;20.85;;
66112;SDS011;52893;52.870;5.822;2023-02-08T09:32:58;51.92;;;19.73;;
66112;SDS011;52893;52.870;5.822;2023-02-08T09:35:25;56.22;;;21.52;;
66112;SDS011;52893;52.870;5.822;2023-02-08T09:37:53;48.28;;;19.63;;
66112;SDS011;52893;52.870;5.822;2023-02-08T09:40:23;47.38;;;20.52;;
66112;SDS011;52893;52.870;5.822;2023-02-08T09:42:54;48.72;;;19.95;;
66112;SDS011;52893;52.870;5.822;2023-02-08T09:45:37;47.75;;;19.10;;
66112;SDS011;52893;52.870;5.822;2023-02-08T09:48:17;45.80;;;18.45;;
66112;SDS011;52893;52.870;5.822;2023-02-08T09:50:48;38.33;;;17.35;;
66112;SDS011;52893;52.870;5.822;2023-02-08T09:53:20;48.95;;;17.90;;
66112;SDS011;52893;52.870;5.822;2023-02-08T09:55:51;45.53;;;17.50;;
66112;SDS011;52893;52.870;5.822;2023-02-08T09:58:22;39.00;;;16.83;;
66112;SDS011;52893;52.870;5.822;2023-02-08T10:00:53;41.60;;;17.13;;
66112;SDS011;52893;52.870;5.822;2023-02-08T10:03:25;42.08;;;17.27;;
66112;SDS011;52893;52.870;5.822;2023-02-08T10:05:57;39.08;;;18.23;;
66112;SDS011;52893;52.870;5.822;2023-02-08T10:08:24;32.75;;;14.07;;
66112;SDS011;52893;52.870;5.822;2023-02-08T10:10:54;28.75;;;14.60;;
66112;SDS011;52893;52.870;5.822;2023-02-08T10:13:41;25.50;;;12.63;;
66112;SDS011;52893;52.870;5.822;2023-02-08T10:16:21;22.63;;;11.65;;
66112;SDS011;52893;52.870;5.822;2023-02-08T10:19:03;27.50;;;11.18;;
66112;SDS011;52893;52.870;5.822;2023-02-08T10:21:44;26.77;;;11.48;;
66112;SDS011;52893;52.870;5.822;2023-02-08T10:24:29;25.95;;;12.13;;
66112;SDS011;52893;52.870;5.822;2023-02-08T10:27:09;22.92;;;11.00;;
66112;SDS011;52893;52.870;5.822;2023-02-08T10:32:43;17.67;;;8.82;;
66112;SDS011;52893;52.870;5.822;2023-02-08T10:35:20;16.67;;;8.43;;
66112;SDS011;52893;52.870;5.822;2023-02-08T10:37:50;19.45;;;9.77;;
66112;SDS011;52893;52.870;5.822;2023-02-08T10:40:23;15.15;;;8.60;;
66112;SDS011;52893;52.870;5.822;2023-02-08T10:42:59;15.02;;;8.57;;
66112;SDS011;52893;52.870;5.822;2023-02-08T10:45:40;17.63;;;8.57;;
66112;SDS011;52893;52.870;5.822;2023-02-08T10:48:12;19.42;;;8.52;;
66112;SDS011;52893;52.870;5.822;2023-02-08T10:50:47;17.35;;;8.05;;
66112;SDS011;52893;52.870;5.822;2023-02-08T10:53:15;13.45;;;7.70;;
66112;SDS011;52893;52.870;5.822;2023-02-08T10:55:46;14.48;;;8.13;;
66112;SDS011;52893;52.870;5.822;2023-02-08T10:58:15;15.32;;;7.68;;
66112;SDS011;52893;52.870;5.822;2023-02-08T11:00:43;16.92;;;8.45;;
66112;SDS011;52893;52.870;5.822;2023-02-08T11:03:13;15.82;;;7.78;;
66112;SDS011;52893;52.870;5.822;2023-02-08T11:05:43;13.38;;;7.43;;
66112;SDS011;52893;52.870;5.822;2023-02-08T11:08:13;18.83;;;7.25;;
66112;SDS011;52893;52.870;5.822;2023-02-08T11:10:45;13.93;;;7.28;;
66112;SDS011;52893;52.870;5.822;2023-02-08T11:13:25;11.85;;;6.53;;
66112;SDS011;52893;52.870;5.822;2023-02-08T11:15:59;21.90;;;8.75;;
66112;SDS011;52893;52.870;5.822;2023-02-08T11:18:28;11.32;;;6.22;;
66112;SDS011;52893;52.870;5.822;2023-02-08T11:20:58;17.92;;;6.85;;
66112;SDS011;52893;52.870;5.822;2023-02-08T11:23:29;14.10;;;6.82;;
66112;SDS011;52893;52.870;5.822;2023-02-08T11:26:14;13.73;;;7.80;;
66112;SDS011;52893;52.870;5.822;2023-02-08T11:28:54;11.25;;;6.55;;
66112;SDS011;52893;52.870;5.822;2023-02-08T11:31:25;13.05;;;6.50;;
66112;SDS011;52893;52.870;5.822;2023-02-08T11:34:02;10.05;;;4.63;;
66112;SDS011;52893;52.870;5.822;2023-02-08T11:36:31;11.27;;;6.18;;
66112;SDS011;52893;52.870;5.822;2023-02-08T11:39:02;7.78;;;5.28;;
66112;SDS011;52893;52.870;5.822;2023-02-08T11:41:42;13.05;;;7.25;;
66112;SDS011;52893;52.870;5.822;2023-02-08T11:44:12;18.60;;;6.45;;
66112;SDS011;52893;52.870;5.822;2023-02-08T11:46:45;12.68;;;6.25;;
66112;SDS011;52893;52.870;5.822;2023-02-08T11:49:18;10.57;;;5.95;;
66112;SDS011;52893;52.870;5.822;2023-02-08T11:51:47;16.30;;;7.05;;
66112;SDS011;52893;52.870;5.822;2023-02-08T11:57:12;11.90;;;6.95;;
66112;SDS011;52893;52.870;5.822;2023-02-08T11:59:41;10.38;;;5.97;;
66112;SDS011;52893;52.870;5.822;2023-02-08T12:02:29;11.07;;;6.30;;
66112;SDS011;52893;52.870;5.822;2023-02-08T12:05:01;19.17;;;6.30;;
66112;SDS011;52893;52.870;5.822;2023-02-08T12:07:37;8.85;;;5.53;;
66112;SDS011;52893;52.870;5.822;2023-02-08T12:10:20;10.25;;;5.38;;
66112;SDS011;52893;52.870;5.822;2023-02-08T12:13:09;11.07;;;5.82;;
66112;SDS011;52893;52.870;5.822;2023-02-08T12:16:04;14.38;;;6.32;;
66112;SDS011;52893;52.870;5.822;2023-02-08T12:18:46;12.43;;;6.15;;
66112;SDS011;52893;52.870;5.822;2023-02-08T12:21:27;12.63;;;6.97;;
66112;SDS011;52893;52.870;5.822;2023-02-08T12:24:02;10.52;;;5.20;;
66112;SDS011;52893;52.870;5.822;2023-02-08T12:26:40;13.10;;;6.65;;
66112;SDS011;52893;52.870;5.822;2023-02-08T12:29:28;12.55;;;6.70;;
66112;SDS011;52893;52.870;5.822;2023-02-08T12:32:17;14.18;;;7.25;;
66112;SDS011;52893;52.870;5.822;2023-02-08T12:35:16;13.48;;;6.15;;
66112;SDS011;52893;52.870;5.822;2023-02-08T12:38:14;10.35;;;6.05;;
66112;SDS011;52893;52.870;5.822;2023-02-08T12:41:06;11.50;;;5.60;;
66112;SDS011;52893;52.870;5.822;2023-02-08T12:43:41;11.23;;;6.20;;
66112;SDS011;52893;52.870;5.822;2023-02-08T12:52:20;8.70;;;4.72;;
66112;SDS011;52893;52.870;5.822;2023-02-08T12:54:56;11.50;;;5.47;;
66112;SDS011;52893;52.870;5.822;2023-02-08T12:57:24;8.57;;;6.05;;
66112;SDS011;52893;52.870;5.822;2023-02-08T12:59:54;14.20;;;6.00;;
66112;SDS011;52893;52.870;5.822;2023-02-08T13:02:27;8.40;;;5.50;;
66112;SDS011;52893;52.870;5.822;2023-02-08T13:04:59;11.80;;;5.43;;
66112;SDS011;52893;52.870;5.822;2023-02-08T13:07:31;8.65;;;5.35;;
66112;SDS011;52893;52.870;5.822;2023-02-08T13:10:02;10.98;;;5.70;;
66112;SDS011;52893;52.870;5.822;2023-02-08T13:12:33;8.95;;;5.00;;
66112;SDS011;52893;52.870;5.822;2023-02-08T13:15:06;10.85;;;4.82;;
66112;SDS011;52893;52.870;5.822;2023-02-08T13:17:42;9.05;;;5.30;;
66112;SDS011;52893;52.870;5.822;2023-02-08T13:20:17;10.55;;;5.13;;
66112;SDS011;52893;52.870;5.822;2023-02-08T13:22:53;14.77;;;5.60;;
66112;SDS011;52893;52.870;5.822;2023-02-08T13:25:25;11.30;;;6.35;;
66112;SDS011;52893;52.870;5.822;2023-02-08T13:27:58;11.02;;;5.72;;
66112;SDS011;52893;52.870;5.822;2023-02-08T13:30:26;10.82;;;5.40;;
66112;SDS011;52893;52.870;5.822;2023-02-08T13:32:55;10.90;;;5.28;;
66112;SDS011;52893;52.870;5.822;2023-02-08T13:35:24;7.03;;;4.53;;
66112;SDS011;52893;52.870;5.822;2023-02-08T13:37:55;10.95;;;5.93;;
66112;SDS011;52893;52.870;5.822;2023-02-08T13:40:28;16.27;;;5.30;;
66112;SDS011;52893;52.870;5.822;2023-02-08T13:42:57;10.52;;;5.53;;
66112;SDS011;52893;52.870;5.822;2023-02-08T13:45:27;11.48;;;5.70;;
66112;SDS011;52893;52.870;5.822;2023-02-08T13:47:59;9.60;;;5.35;;
66112;SDS011;52893;52.870;5.822;2023-02-08T13:50:39;9.90;;;5.88;;
66112;SDS011;52893;52.870;5.822;2023-02-08T13:53:08;10.77;;;5.43;;
66112;SDS011;52893;52.870;5.822;2023-02-08T13:58:35;9.48;;;5.07;;
66112;SDS011;52893;52.870;5.822;2023-02-08T14:01:18;8.38;;;5.25;;
66112;SDS011;52893;52.870;5.822;2023-02-08T14:06:54;8.65;;;5.55;;
66112;SDS011;52893;52.870;5.822;2023-02-08T14:09:27;11.32;;;6.13;;
66112;SDS011;52893;52.870;5.822;2023-02-08T14:11:59;8.98;;;4.60;;
66112;SDS011;52893;52.870;5.822;2023-02-08T14:14:30;8.60;;;4.53;;
66112;SDS011;52893;52.870;5.822;2023-02-08T14:17:10;10.68;;;5.65;;
66112;SDS011;52893;52.870;5.822;2023-02-08T14:19:54;6.95;;;4.10;;
66112;SDS011;52893;52.870;5.822;2023-02-08T14:22:23;7.10;;;4.53;;
66112;SDS011;52893;52.870;5.822;2023-02-08T14:25:03;8.90;;;4.32;;
66112;SDS011;52893;52.870;5.822;2023-02-08T14:27:35;5.32;;;3.20;;
66112;SDS011;52893;52.870;5.822;2023-02-08T14:30:06;7.75;;;4.00;;
66112;SDS011;52893;52.870;5.822;2023-02-08T14:32:46;7.22;;;3.92;;
66112;SDS011;52893;52.870;5.822;2023-02-08T14:35:19;5.43;;;3.08;;
66112;SDS011;52893;52.870;5.822;2023-02-08T14:37:48;6.43;;;3.65;;
66112;SDS011;52893;52.870;5.822;2023-02-08T14:43:28;6.78;;;3.88;;
66112;SDS011;52893;52.870;5.822;2023-02-08T14:46:19;5.70;;;3.47;;
66112;SDS011;52893;52.870;5.822;2023-02-08T14:49:07;6.13;;;3.40;;
66112;SDS011;52893;52.870;5.822;2023-02-08T14:54:14;7.75;;;3.42;;
66112;SDS011;52893;52.870;5.822;2023-02-08T14:56:47;6.28;;;2.85;;
66112;SDS011;52893;52.870;5.822;2023-02-08T14:59:22;4.95;;;2.67;;
66112;SDS011;52893;52.870;5.822;2023-02-08T15:01:53;8.48;;;3.25;;
66112;SDS011;52893;52.870;5.822;2023-02-08T15:04:25;4.43;;;2.90;;
66112;SDS011;52893;52.870;5.822;2023-02-08T15:07:03;3.45;;;2.35;;
66112;SDS011;52893;52.870;5.822;2023-02-08T15:09:43;6.63;;;3.00;;
66112;SDS011;52893;52.870;5.822;2023-02-08T15:12:13;3.25;;;2.63;;
66112;SDS011;52893;52.870;5.822;2023-02-08T15:14:43;3.30;;;2.38;;
66112;SDS011;52893;52.870;5.822;2023-02-08T15:17:17;2.80;;;2.05;;
66112;SDS011;52893;52.870;5.822;2023-02-08T15:19:49;5.93;;;3.10;;
66112;SDS011;52893;52.870;5.822;2023-02-08T15:22:19;5.32;;;3.03;;
66112;SDS011;52893;52.870;5.822;2023-02-08T15:24:57;6.00;;;3.10;;
66112;SDS011;52893;52.870;5.822;2023-02-08T15:27:27;5.07;;;3.10;;